sensor_id;sensor_type;location;lat;lon;timestamp;P1;durP1;ratioP1;P2;durP2;ratioP2
13891;SDS011;7016;48.172;8.058;2023-07-28T00:02:24;5.72;;;3.00;;
13891;SDS011;7016;48.172;8.058;2023-07-28T00:05:10;5.28;;;2.50;;
13891;SDS011;7016;48.172;8.058;2023-07-28T00:07:56;3.72;;;2.80;;
13891;SDS011;7016;48.172;8.058;2023-07-28T00:10:42;4.82;;;2.53;;
13891;SDS011;7016;48.172;8.058;2023-07-28T00:13:29;5.78;;;2.58;;
13891;SDS011;7016;48.172;8.058;2023-07-28T00:16:15;3.53;;;2.58;;
13891;SDS011;7016;48.172;8.058;2023-07-28T00:19:01;4.15;;;2.67;;
13891;SDS011;7016;48.172;8.058;2023-07-28T00:21:49;7.25;;;2.95;;
13891;SDS011;7016;48.172;8.058;2023-07-28T00:24:36;5.40;;;2.63;;
13891;SDS011;7016;48.172;8.058;2023-07-28T00:27:23;3.42;;;2.83;;
13891;SDS011;7016;48.172;8.058;2023-07-28T00:30:09;4.35;;;2.50;;
13891;SDS011;7016;48.172;8.058;2023-07-28T00:32:56;4.90;;;3.00;;
13891;SDS011;7016;48.172;8.058;2023-07-28T00:35:42;5.82;;;2.85;;
13891;SDS011;7016;48.172;8.058;2023-07-28T00:38:29;6.00;;;2.95;;
13891;SDS011;7016;48.172;8.058;2023-07-28T00:41:15;3.60;;;2.92;;
13891;SDS011;7016;48.172;8.058;2023-07-28T00:44:01;4.75;;;2.65;;
13891;SDS011;7016;48.172;8.058;2023-07-28T00:46:47;3.47;;;2.60;;
13891;SDS011;7016;48.172;8.058;2023-07-28T00:49:34;5.00;;;2.92;;
13891;SDS011;7016;48.172;8.058;2023-07-28T00:52:20;5.68;;;3.03;;
13891;SDS011;7016;48.172;8.058;2023-07-28T00:55:06;6.80;;;2.80;;
13891;SDS011;7016;48.172;8.058;2023-07-28T00:57:53;6.75;;;2.97;;
13891;SDS011;7016;48.172;8.058;2023-07-28T01:00:39;7.03;;;3.33;;
13891;SDS011;7016;48.172;8.058;2023-07-28T01:03:25;3.92;;;2.55;;
13891;SDS011;7016;48.172;8.058;2023-07-28T01:09:16;7.15;;;3.33;;
13891;SDS011;7016;48.172;8.058;2023-07-28T01:12:07;5.90;;;2.80;;
13891;SDS011;7016;48.172;8.058;2023-07-28T01:14:56;5.25;;;2.75;;
13891;SDS011;7016;48.172;8.058;2023-07-28T01:17:43;4.28;;;2.80;;
13891;SDS011;7016;48.172;8.058;2023-07-28T01:20:29;5.25;;;2.72;;
13891;SDS011;7016;48.172;8.058;2023-07-28T01:26:08;4.93;;;2.90;;
13891;SDS011;7016;48.172;8.058;2023-07-28T01:28:56;4.85;;;3.13;;
13891;SDS011;7016;48.172;8.058;2023-07-28T01:31:42;5.15;;;3.08;;
13891;SDS011;7016;48.172;8.058;2023-07-28T01:34:31;7.35;;;3.05;;
13891;SDS011;7016;48.172;8.058;2023-07-28T01:37:17;5.20;;;2.92;;
13891;SDS011;7016;48.172;8.058;2023-07-28T01:40:03;6.18;;;3.10;;
13891;SDS011;7016;48.172;8.058;2023-07-28T01:42:50;6.72;;;3.20;;
13891;SDS011;7016;48.172;8.058;2023-07-28T01:45:36;4.72;;;2.78;;
13891;SDS011;7016;48.172;8.058;2023-07-28T01:48:22;7.30;;;2.97;;
13891;SDS011;7016;48.172;8.058;2023-07-28T01:51:08;4.75;;;2.83;;
13891;SDS011;7016;48.172;8.058;2023-07-28T01:53:54;5.03;;;2.83;;
13891;SDS011;7016;48.172;8.058;2023-07-28T01:56:40;6.70;;;3.03;;
13891;SDS011;7016;48.172;8.058;2023-07-28T01:59:27;6.40;;;3.00;;
13891;SDS011;7016;48.172;8.058;2023-07-28T02:02:13;5.30;;;3.00;;
13891;SDS011;7016;48.172;8.058;2023-07-28T02:04:59;6.00;;;3.13;;
13891;SDS011;7016;48.172;8.058;2023-07-28T02:07:45;3.80;;;2.80;;
13891;SDS011;7016;48.172;8.058;2023-07-28T02:10:32;3.92;;;2.95;;
13891;SDS011;7016;48.172;8.058;2023-07-28T02:13:18;5.90;;;2.58;;
13891;SDS011;7016;48.172;8.058;2023-07-28T02:16:04;10.05;;;2.95;;
13891;SDS011;7016;48.172;8.058;2023-07-28T02:18:50;4.07;;;2.80;;
13891;SDS011;7016;48.172;8.058;2023-07-28T02:21:37;5.57;;;2.72;;
13891;SDS011;7016;48.172;8.058;2023-07-28T02:24:23;6.55;;;2.63;;
13891;SDS011;7016;48.172;8.058;2023-07-28T02:27:09;5.40;;;3.00;;
13891;SDS011;7016;48.172;8.058;2023-07-28T02:29:55;5.05;;;2.97;;
13891;SDS011;7016;48.172;8.058;2023-07-28T02:32:41;3.63;;;2.80;;
13891;SDS011;7016;48.172;8.058;2023-07-28T02:35:28;7.05;;;2.78;;
13891;SDS011;7016;48.172;8.058;2023-07-28T02:38:14;6.93;;;2.92;;
13891;SDS011;7016;48.172;8.058;2023-07-28T02:41:00;4.50;;;2.80;;
13891;SDS011;7016;48.172;8.058;2023-07-28T02:43:48;4.43;;;2.95;;
13891;SDS011;7016;48.172;8.058;2023-07-28T02:46:34;6.63;;;2.67;;
13891;SDS011;7016;48.172;8.058;2023-07-28T02:49:22;5.15;;;2.97;;
13891;SDS011;7016;48.172;8.058;2023-07-28T02:52:08;5.20;;;2.92;;
13891;SDS011;7016;48.172;8.058;2023-07-28T02:54:55;5.97;;;2.95;;
13891;SDS011;7016;48.172;8.058;2023-07-28T02:57:41;7.72;;;3.35;;
13891;SDS011;7016;48.172;8.058;2023-07-28T03:00:27;5.00;;;3.08;;
13891;SDS011;7016;48.172;8.058;2023-07-28T03:03:14;5.72;;;2.88;;
13891;SDS011;7016;48.172;8.058;2023-07-28T03:06:00;5.05;;;3.00;;
13891;SDS011;7016;48.172;8.058;2023-07-28T03:08:47;6.65;;;3.22;;
13891;SDS011;7016;48.172;8.058;2023-07-28T03:11:34;7.68;;;3.03;;
13891;SDS011;7016;48.172;8.058;2023-07-28T03:14:20;5.20;;;2.97;;
13891;SDS011;7016;48.172;8.058;2023-07-28T03:17:07;4.20;;;3.17;;
13891;SDS011;7016;48.172;8.058;2023-07-28T03:19:53;6.78;;;3.17;;
13891;SDS011;7016;48.172;8.058;2023-07-28T03:22:39;4.90;;;3.17;;
13891;SDS011;7016;48.172;8.058;2023-07-28T03:25:25;6.40;;;2.92;;
13891;SDS011;7016;48.172;8.058;2023-07-28T03:28:12;4.18;;;3.00;;
13891;SDS011;7016;48.172;8.058;2023-07-28T03:30:58;6.63;;;3.55;;
13891;SDS011;7016;48.172;8.058;2023-07-28T03:33:45;5.63;;;3.67;;
13891;SDS011;7016;48.172;8.058;2023-07-28T03:36:31;4.88;;;3.08;;
13891;SDS011;7016;48.172;8.058;2023-07-28T03:39:17;5.75;;;3.30;;
13891;SDS011;7016;48.172;8.058;2023-07-28T03:42:04;8.63;;;3.45;;
13891;SDS011;7016;48.172;8.058;2023-07-28T03:44:50;7.72;;;3.30;;
13891;SDS011;7016;48.172;8.058;2023-07-28T03:47:37;5.30;;;3.55;;
13891;SDS011;7016;48.172;8.058;2023-07-28T03:50:25;4.43;;;3.28;;
13891;SDS011;7016;48.172;8.058;2023-07-28T03:53:12;6.38;;;3.15;;
13891;SDS011;7016;48.172;8.058;2023-07-28T03:55:58;4.80;;;2.80;;
13891;SDS011;7016;48.172;8.058;2023-07-28T03:58:44;4.93;;;3.03;;
13891;SDS011;7016;48.172;8.058;2023-07-28T04:01:30;5.90;;;3.42;;
13891;SDS011;7016;48.172;8.058;2023-07-28T04:04:17;5.90;;;3.47;;
13891;SDS011;7016;48.172;8.058;2023-07-28T04:07:03;4.55;;;3.22;;
13891;SDS011;7016;48.172;8.058;2023-07-28T04:09:50;5.00;;;3.17;;
13891;SDS011;7016;48.172;8.058;2023-07-28T04:12:36;6.95;;;3.75;;
13891;SDS011;7016;48.172;8.058;2023-07-28T04:15:22;4.72;;;3.15;;
13891;SDS011;7016;48.172;8.058;2023-07-28T04:18:08;4.88;;;3.10;;
13891;SDS011;7016;48.172;8.058;2023-07-28T04:20:55;8.73;;;3.10;;
13891;SDS011;7016;48.172;8.058;2023-07-28T04:23:41;4.60;;;3.03;;
13891;SDS011;7016;48.172;8.058;2023-07-28T04:26:28;5.97;;;3.10;;
13891;SDS011;7016;48.172;8.058;2023-07-28T04:29:15;5.88;;;3.10;;
13891;SDS011;7016;48.172;8.058;2023-07-28T04:32:01;4.18;;;3.20;;
13891;SDS011;7016;48.172;8.058;2023-07-28T04:34:47;6.18;;;3.30;;
13891;SDS011;7016;48.172;8.058;2023-07-28T04:37:33;7.05;;;3.70;;
13891;SDS011;7016;48.172;8.058;2023-07-28T04:40:19;6.70;;;3.50;;
13891;SDS011;7016;48.172;8.058;2023-07-28T04:43:05;4.70;;;3.38;;
13891;SDS011;7016;48.172;8.058;2023-07-28T04:45:52;7.03;;;3.30;;
13891;SDS011;7016;48.172;8.058;2023-07-28T04:48:38;5.80;;;3.58;;
13891;SDS011;7016;48.172;8.058;2023-07-28T04:51:24;9.02;;;4.40;;
13891;SDS011;7016;48.172;8.058;2023-07-28T04:54:10;7.95;;;3.53;;
13891;SDS011;7016;48.172;8.058;2023-07-28T04:56:58;8.60;;;3.83;;
13891;SDS011;7016;48.172;8.058;2023-07-28T04:59:45;5.60;;;4.03;;
13891;SDS011;7016;48.172;8.058;2023-07-28T05:02:31;7.85;;;4.07;;
13891;SDS011;7016;48.172;8.058;2023-07-28T05:05:17;5.13;;;4.10;;
13891;SDS011;7016;48.172;8.058;2023-07-28T05:08:03;5.78;;;3.45;;
13891;SDS011;7016;48.172;8.058;2023-07-28T05:10:50;4.95;;;4.22;;
13891;SDS011;7016;48.172;8.058;2023-07-28T05:13:37;8.52;;;4.45;;
13891;SDS011;7016;48.172;8.058;2023-07-28T05:16:23;6.28;;;4.20;;
13891;SDS011;7016;48.172;8.058;2023-07-28T05:19:10;9.02;;;3.90;;
13891;SDS011;7016;48.172;8.058;2023-07-28T05:21:57;10.50;;;3.95;;
13891;SDS011;7016;48.172;8.058;2023-07-28T05:24:43;6.05;;;4.20;;
13891;SDS011;7016;48.172;8.058;2023-07-28T05:27:30;6.53;;;4.70;;
13891;SDS011;7016;48.172;8.058;2023-07-28T05:30:16;10.77;;;4.68;;
13891;SDS011;7016;48.172;8.058;2023-07-28T05:33:03;6.88;;;4.60;;
13891;SDS011;7016;48.172;8.058;2023-07-28T05:35:58;6.95;;;5.15;;
13891;SDS011;7016;48.172;8.058;2023-07-28T05:38:50;6.32;;;4.60;;
13891;SDS011;7016;48.172;8.058;2023-07-28T05:41:39;9.13;;;6.05;;
13891;SDS011;7016;48.172;8.058;2023-07-28T05:44:25;9.52;;;5.82;;
13891;SDS011;7016;48.172;8.058;2023-07-28T05:47:11;9.18;;;5.28;;
13891;SDS011;7016;48.172;8.058;2023-07-28T05:49:57;8.38;;;4.97;;
13891;SDS011;7016;48.172;8.058;2023-07-28T05:52:43;10.25;;;5.00;;
13891;SDS011;7016;48.172;8.058;2023-07-28T05:55:30;12.38;;;5.90;;
13891;SDS011;7016;48.172;8.058;2023-07-28T05:58:16;8.95;;;5.32;;
13891;SDS011;7016;48.172;8.058;2023-07-28T06:01:02;9.15;;;4.00;;
13891;SDS011;7016;48.172;8.058;2023-07-28T06:03:48;12.85;;;6.57;;
13891;SDS011;7016;48.172;8.058;2023-07-28T06:06:35;11.55;;;6.28;;
13891;SDS011;7016;48.172;8.058;2023-07-28T06:09:21;10.52;;;6.15;;
13891;SDS011;7016;48.172;8.058;2023-07-28T06:12:08;10.88;;;5.78;;
13891;SDS011;7016;48.172;8.058;2023-07-28T06:14:54;9.88;;;5.90;;
13891;SDS011;7016;48.172;8.058;2023-07-28T06:17:40;10.77;;;5.25;;
13891;SDS011;7016;48.172;8.058;2023-07-28T06:20:26;9.65;;;4.82;;
13891;SDS011;7016;48.172;8.058;2023-07-28T06:23:12;6.40;;;4.85;;
13891;SDS011;7016;48.172;8.058;2023-07-28T06:25:59;6.68;;;4.30;;
13891;SDS011;7016;48.172;8.058;2023-07-28T06:28:45;8.95;;;6.05;;
13891;SDS011;7016;48.172;8.058;2023-07-28T06:31:31;12.30;;;6.03;;
13891;SDS011;7016;48.172;8.058;2023-07-28T06:34:17;14.02;;;8.20;;
13891;SDS011;7016;48.172;8.058;2023-07-28T06:37:03;12.02;;;6.13;;
13891;SDS011;7016;48.172;8.058;2023-07-28T06:39:50;12.07;;;6.57;;
13891;SDS011;7016;48.172;8.058;2023-07-28T06:42:36;6.72;;;4.05;;
13891;SDS011;7016;48.172;8.058;2023-07-28T06:45:22;8.25;;;5.15;;
13891;SDS011;7016;48.172;8.058;2023-07-28T06:48:09;12.07;;;5.28;;
13891;SDS011;7016;48.172;8.058;2023-07-28T06:50:55;8.88;;;5.05;;
13891;SDS011;7016;48.172;8.058;2023-07-28T06:53:41;8.52;;;4.65;;
13891;SDS011;7016;48.172;8.058;2023-07-28T06:56:27;9.07;;;4.28;;
13891;SDS011;7016;48.172;8.058;2023-07-28T06:59:13;6.55;;;4.05;;
13891;SDS011;7016;48.172;8.058;2023-07-28T07:02:00;6.57;;;4.20;;
13891;SDS011;7016;48.172;8.058;2023-07-28T07:04:46;3.85;;;3.08;;
13891;SDS011;7016;48.172;8.058;2023-07-28T07:07:32;5.22;;;2.50;;
13891;SDS011;7016;48.172;8.058;2023-07-28T07:10:18;5.50;;;3.10;;
13891;SDS011;7016;48.172;8.058;2023-07-28T07:13:06;9.43;;;3.10;;
13891;SDS011;7016;48.172;8.058;2023-07-28T07:15:52;5.40;;;3.35;;
13891;SDS011;7016;48.172;8.058;2023-07-28T07:18:38;4.30;;;2.88;;
13891;SDS011;7016;48.172;8.058;2023-07-28T07:21:24;5.38;;;3.00;;
13891;SDS011;7016;48.172;8.058;2023-07-28T07:24:13;5.32;;;3.28;;
13891;SDS011;7016;48.172;8.058;2023-07-28T07:26:59;6.15;;;3.00;;
13891;SDS011;7016;48.172;8.058;2023-07-28T07:29:45;5.57;;;2.80;;
13891;SDS011;7016;48.172;8.058;2023-07-28T07:32:32;4.38;;;2.95;;
13891;SDS011;7016;48.172;8.058;2023-07-28T07:35:19;6.35;;;3.20;;
13891;SDS011;7016;48.172;8.058;2023-07-28T07:38:05;6.95;;;3.30;;
13891;SDS011;7016;48.172;8.058;2023-07-28T07:40:54;3.95;;;2.60;;
13891;SDS011;7016;48.172;8.058;2023-07-28T07:43:40;6.78;;;2.95;;
13891;SDS011;7016;48.172;8.058;2023-07-28T07:46:27;5.13;;;3.03;;
13891;SDS011;7016;48.172;8.058;2023-07-28T07:49:13;5.32;;;3.35;;
13891;SDS011;7016;48.172;8.058;2023-07-28T07:51:59;5.40;;;3.17;;
13891;SDS011;7016;48.172;8.058;2023-07-28T07:54:45;8.15;;;3.40;;
13891;SDS011;7016;48.172;8.058;2023-07-28T07:57:32;9.18;;;3.50;;
13891;SDS011;7016;48.172;8.058;2023-07-28T08:00:18;5.82;;;2.83;;
13891;SDS011;7016;48.172;8.058;2023-07-28T08:03:04;4.72;;;2.80;;
13891;SDS011;7016;48.172;8.058;2023-07-28T08:05:51;4.20;;;2.97;;
13891;SDS011;7016;48.172;8.058;2023-07-28T08:08:37;5.00;;;3.00;;
13891;SDS011;7016;48.172;8.058;2023-07-28T08:11:24;5.10;;;2.88;;
13891;SDS011;7016;48.172;8.058;2023-07-28T08:14:10;4.60;;;3.08;;
13891;SDS011;7016;48.172;8.058;2023-07-28T08:16:57;6.75;;;3.22;;
13891;SDS011;7016;48.172;8.058;2023-07-28T08:19:43;7.30;;;2.97;;
13891;SDS011;7016;48.172;8.058;2023-07-28T08:22:29;4.28;;;3.05;;
13891;SDS011;7016;48.172;8.058;2023-07-28T08:25:15;6.47;;;2.95;;
13891;SDS011;7016;48.172;8.058;2023-07-28T08:28:02;4.90;;;2.70;;
13891;SDS011;7016;48.172;8.058;2023-07-28T08:30:55;3.47;;;2.60;;
13891;SDS011;7016;48.172;8.058;2023-07-28T08:33:48;3.30;;;2.50;;
13891;SDS011;7016;48.172;8.058;2023-07-28T08:36:34;4.78;;;2.97;;
13891;SDS011;7016;48.172;8.058;2023-07-28T08:39:20;4.95;;;2.70;;
13891;SDS011;7016;48.172;8.058;2023-07-28T08:42:06;3.45;;;2.38;;
13891;SDS011;7016;48.172;8.058;2023-07-28T08:44:52;5.00;;;2.90;;
13891;SDS011;7016;48.172;8.058;2023-07-28T08:47:38;3.20;;;2.67;;
13891;SDS011;7016;48.172;8.058;2023-07-28T08:50:25;4.47;;;2.78;;
13891;SDS011;7016;48.172;8.058;2023-07-28T08:53:12;3.17;;;2.40;;
13891;SDS011;7016;48.172;8.058;2023-07-28T08:55:58;3.35;;;2.38;;
13891;SDS011;7016;48.172;8.058;2023-07-28T08:58:44;5.72;;;2.50;;
13891;SDS011;7016;48.172;8.058;2023-07-28T09:01:30;3.88;;;2.75;;
13891;SDS011;7016;48.172;8.058;2023-07-28T09:04:17;5.30;;;2.65;;
13891;SDS011;7016;48.172;8.058;2023-07-28T09:07:04;7.18;;;2.55;;
13891;SDS011;7016;48.172;8.058;2023-07-28T09:09:57;5.75;;;2.78;;
13891;SDS011;7016;48.172;8.058;2023-07-28T09:12:47;6.07;;;2.67;;
13891;SDS011;7016;48.172;8.058;2023-07-28T09:15:34;4.95;;;2.80;;
13891;SDS011;7016;48.172;8.058;2023-07-28T09:18:21;3.70;;;2.55;;
13891;SDS011;7016;48.172;8.058;2023-07-28T09:21:17;3.97;;;2.35;;
13891;SDS011;7016;48.172;8.058;2023-07-28T09:24:05;5.13;;;2.60;;
13891;SDS011;7016;48.172;8.058;2023-07-28T09:26:56;5.57;;;2.30;;
13891;SDS011;7016;48.172;8.058;2023-07-28T09:29:46;3.60;;;2.40;;
13891;SDS011;7016;48.172;8.058;2023-07-28T09:32:34;6.38;;;2.67;;
13891;SDS011;7016;48.172;8.058;2023-07-28T09:35:22;6.95;;;2.38;;
13891;SDS011;7016;48.172;8.058;2023-07-28T09:38:08;4.95;;;2.60;;
13891;SDS011;7016;48.172;8.058;2023-07-28T09:40:55;2.90;;;2.40;;
13891;SDS011;7016;48.172;8.058;2023-07-28T09:43:44;6.65;;;2.60;;
13891;SDS011;7016;48.172;8.058;2023-07-28T09:46:30;5.15;;;2.63;;
13891;SDS011;7016;48.172;8.058;2023-07-28T09:49:22;4.10;;;2.67;;
13891;SDS011;7016;48.172;8.058;2023-07-28T09:52:14;4.43;;;2.80;;
13891;SDS011;7016;48.172;8.058;2023-07-28T09:55:06;3.35;;;2.40;;
13891;SDS011;7016;48.172;8.058;2023-07-28T09:57:55;4.25;;;2.83;;
13891;SDS011;7016;48.172;8.058;2023-07-28T10:00:43;5.82;;;3.58;;
13891;SDS011;7016;48.172;8.058;2023-07-28T10:03:30;5.35;;;2.83;;
13891;SDS011;7016;48.172;8.058;2023-07-28T10:06:16;4.53;;;2.50;;
13891;SDS011;7016;48.172;8.058;2023-07-28T10:09:04;5.75;;;2.95;;
13891;SDS011;7016;48.172;8.058;2023-07-28T10:11:51;4.20;;;2.50;;
13891;SDS011;7016;48.172;8.058;2023-07-28T10:14:38;5.75;;;2.90;;
13891;SDS011;7016;48.172;8.058;2023-07-28T10:17:30;5.10;;;2.60;;
13891;SDS011;7016;48.172;8.058;2023-07-28T10:20:37;4.57;;;2.55;;
13891;SDS011;7016;48.172;8.058;2023-07-28T10:23:24;3.75;;;2.80;;
13891;SDS011;7016;48.172;8.058;2023-07-28T10:26:10;4.07;;;2.80;;
13891;SDS011;7016;48.172;8.058;2023-07-28T10:29:07;4.10;;;2.97;;
13891;SDS011;7016;48.172;8.058;2023-07-28T10:31:57;7.93;;;2.75;;
13891;SDS011;7016;48.172;8.058;2023-07-28T10:34:47;3.22;;;2.45;;
13891;SDS011;7016;48.172;8.058;2023-07-28T10:37:45;5.03;;;2.72;;
13891;SDS011;7016;48.172;8.058;2023-07-28T10:40:32;4.10;;;2.72;;
13891;SDS011;7016;48.172;8.058;2023-07-28T10:43:24;4.40;;;3.08;;
13891;SDS011;7016;48.172;8.058;2023-07-28T10:46:15;3.67;;;2.67;;
13891;SDS011;7016;48.172;8.058;2023-07-28T10:49:04;6.90;;;2.92;;
13891;SDS011;7016;48.172;8.058;2023-07-28T10:51:51;4.28;;;2.63;;
13891;SDS011;7016;48.172;8.058;2023-07-28T10:54:37;6.72;;;2.97;;
13891;SDS011;7016;48.172;8.058;2023-07-28T10:57:23;7.43;;;2.88;;
13891;SDS011;7016;48.172;8.058;2023-07-28T11:00:12;4.25;;;2.67;;
13891;SDS011;7016;48.172;8.058;2023-07-28T11:03:00;4.63;;;2.90;;
13891;SDS011;7016;48.172;8.058;2023-07-28T11:05:48;4.90;;;2.92;;
13891;SDS011;7016;48.172;8.058;2023-07-28T11:08:35;8.30;;;3.30;;
13891;SDS011;7016;48.172;8.058;2023-07-28T11:11:21;6.53;;;3.10;;
13891;SDS011;7016;48.172;8.058;2023-07-28T11:14:07;5.38;;;2.90;;
13891;SDS011;7016;48.172;8.058;2023-07-28T11:16:54;6.20;;;2.67;;
13891;SDS011;7016;48.172;8.058;2023-07-28T11:19:41;4.32;;;2.88;;
13891;SDS011;7016;48.172;8.058;2023-07-28T11:22:27;7.38;;;3.00;;
13891;SDS011;7016;48.172;8.058;2023-07-28T11:25:13;8.00;;;3.30;;
13891;SDS011;7016;48.172;8.058;2023-07-28T11:28:01;5.97;;;2.90;;
13891;SDS011;7016;48.172;8.058;2023-07-28T11:30:51;4.68;;;3.13;;
13891;SDS011;7016;48.172;8.058;2023-07-28T11:33:38;6.43;;;2.60;;
13891;SDS011;7016;48.172;8.058;2023-07-28T11:36:26;4.72;;;2.80;;
13891;SDS011;7016;48.172;8.058;2023-07-28T11:39:13;9.55;;;3.08;;
13891;SDS011;7016;48.172;8.058;2023-07-28T11:42:00;6.05;;;2.95;;
13891;SDS011;7016;48.172;8.058;2023-07-28T11:44:47;5.43;;;3.17;;
13891;SDS011;7016;48.172;8.058;2023-07-28T11:47:33;3.97;;;3.15;;
13891;SDS011;7016;48.172;8.058;2023-07-28T11:50:23;7.45;;;3.13;;
13891;SDS011;7016;48.172;8.058;2023-07-28T11:53:10;5.75;;;3.38;;
13891;SDS011;7016;48.172;8.058;2023-07-28T11:55:56;4.88;;;2.97;;
13891;SDS011;7016;48.172;8.058;2023-07-28T11:58:43;4.72;;;3.13;;
13891;SDS011;7016;48.172;8.058;2023-07-28T12:01:29;3.60;;;3.20;;
13891;SDS011;7016;48.172;8.058;2023-07-28T12:04:19;5.45;;;3.35;;
13891;SDS011;7016;48.172;8.058;2023-07-28T12:07:17;5.50;;;3.10;;
13891;SDS011;7016;48.172;8.058;2023-07-28T12:10:04;6.30;;;3.50;;
13891;SDS011;7016;48.172;8.058;2023-07-28T12:12:55;3.85;;;2.90;;
13891;SDS011;7016;48.172;8.058;2023-07-28T12:15:41;7.13;;;3.25;;
13891;SDS011;7016;48.172;8.058;2023-07-28T12:18:29;5.80;;;3.35;;
13891;SDS011;7016;48.172;8.058;2023-07-28T12:21:16;5.10;;;3.10;;
13891;SDS011;7016;48.172;8.058;2023-07-28T12:24:02;5.57;;;3.55;;
13891;SDS011;7016;48.172;8.058;2023-07-28T12:26:50;6.78;;;3.78;;
13891;SDS011;7016;48.172;8.058;2023-07-28T12:29:36;5.93;;;3.60;;
13891;SDS011;7016;48.172;8.058;2023-07-28T12:32:22;5.57;;;3.47;;
13891;SDS011;7016;48.172;8.058;2023-07-28T12:35:09;5.40;;;3.75;;
13891;SDS011;7016;48.172;8.058;2023-07-28T12:37:55;5.07;;;3.35;;
13891;SDS011;7016;48.172;8.058;2023-07-28T12:40:42;6.60;;;3.72;;
13891;SDS011;7016;48.172;8.058;2023-07-28T12:43:28;6.00;;;3.58;;
13891;SDS011;7016;48.172;8.058;2023-07-28T12:46:14;8.70;;;4.28;;
13891;SDS011;7016;48.172;8.058;2023-07-28T12:49:00;5.68;;;3.53;;
13891;SDS011;7016;48.172;8.058;2023-07-28T12:51:47;5.32;;;4.05;;
13891;SDS011;7016;48.172;8.058;2023-07-28T12:54:33;6.55;;;4.10;;
13891;SDS011;7016;48.172;8.058;2023-07-28T12:57:19;7.43;;;3.67;;
13891;SDS011;7016;48.172;8.058;2023-07-28T13:00:06;7.63;;;4.55;;
13891;SDS011;7016;48.172;8.058;2023-07-28T13:02:58;8.65;;;4.28;;
13891;SDS011;7016;48.172;8.058;2023-07-28T13:05:44;6.57;;;4.20;;
13891;SDS011;7016;48.172;8.058;2023-07-28T13:08:32;6.45;;;4.43;;
13891;SDS011;7016;48.172;8.058;2023-07-28T13:11:18;6.82;;;4.10;;
13891;SDS011;7016;48.172;8.058;2023-07-28T13:14:05;5.80;;;4.40;;
13891;SDS011;7016;48.172;8.058;2023-07-28T13:16:51;6.20;;;4.15;;
13891;SDS011;7016;48.172;8.058;2023-07-28T13:19:37;5.70;;;4.05;;
13891;SDS011;7016;48.172;8.058;2023-07-28T13:22:24;6.97;;;4.10;;
13891;SDS011;7016;48.172;8.058;2023-07-28T13:25:12;8.65;;;4.78;;
13891;SDS011;7016;48.172;8.058;2023-07-28T13:27:58;6.72;;;3.95;;
13891;SDS011;7016;48.172;8.058;2023-07-28T13:30:44;5.82;;;4.13;;
13891;SDS011;7016;48.172;8.058;2023-07-28T13:33:30;4.72;;;3.80;;
13891;SDS011;7016;48.172;8.058;2023-07-28T13:36:16;6.53;;;4.60;;
13891;SDS011;7016;48.172;8.058;2023-07-28T13:39:02;6.18;;;4.00;;
13891;SDS011;7016;48.172;8.058;2023-07-28T13:41:49;3.95;;;3.55;;
13891;SDS011;7016;48.172;8.058;2023-07-28T13:44:36;5.47;;;3.22;;
13891;SDS011;7016;48.172;8.058;2023-07-28T13:47:22;5.55;;;3.20;;
13891;SDS011;7016;48.172;8.058;2023-07-28T13:50:09;5.47;;;2.53;;
13891;SDS011;7016;48.172;8.058;2023-07-28T13:52:55;4.57;;;2.85;;
13891;SDS011;7016;48.172;8.058;2023-07-28T13:55:42;5.28;;;2.90;;
13891;SDS011;7016;48.172;8.058;2023-07-28T13:58:28;6.18;;;3.10;;
13891;SDS011;7016;48.172;8.058;2023-07-28T14:01:14;6.68;;;2.92;;
13891;SDS011;7016;48.172;8.058;2023-07-28T14:04:00;3.88;;;2.85;;
13891;SDS011;7016;48.172;8.058;2023-07-28T14:06:47;6.20;;;2.40;;
13891;SDS011;7016;48.172;8.058;2023-07-28T14:09:33;2.85;;;2.40;;
13891;SDS011;7016;48.172;8.058;2023-07-28T14:12:19;3.20;;;2.38;;
13891;SDS011;7016;48.172;8.058;2023-07-28T14:15:06;4.78;;;2.90;;
13891;SDS011;7016;48.172;8.058;2023-07-28T14:17:53;3.08;;;2.53;;
13891;SDS011;7016;48.172;8.058;2023-07-28T14:20:39;4.40;;;2.95;;
13891;SDS011;7016;48.172;8.058;2023-07-28T14:23:26;3.85;;;2.90;;
13891;SDS011;7016;48.172;8.058;2023-07-28T14:26:13;3.17;;;2.13;;
13891;SDS011;7016;48.172;8.058;2023-07-28T14:29:00;4.78;;;2.22;;
13891;SDS011;7016;48.172;8.058;2023-07-28T14:31:46;2.80;;;1.80;;
13891;SDS011;7016;48.172;8.058;2023-07-28T14:34:32;3.15;;;1.90;;
13891;SDS011;7016;48.172;8.058;2023-07-28T14:37:18;2.60;;;1.80;;
13891;SDS011;7016;48.172;8.058;2023-07-28T14:40:05;1.95;;;1.65;;
13891;SDS011;7016;48.172;8.058;2023-07-28T14:42:52;2.90;;;1.85;;
13891;SDS011;7016;48.172;8.058;2023-07-28T14:45:38;2.08;;;1.58;;
13891;SDS011;7016;48.172;8.058;2023-07-28T14:48:25;2.42;;;1.75;;
13891;SDS011;7016;48.172;8.058;2023-07-28T14:51:11;2.25;;;1.60;;
13891;SDS011;7016;48.172;8.058;2023-07-28T14:53:57;2.75;;;1.40;;
13891;SDS011;7016;48.172;8.058;2023-07-28T14:56:43;1.80;;;1.42;;
13891;SDS011;7016;48.172;8.058;2023-07-28T14:59:29;2.30;;;1.50;;
13891;SDS011;7016;48.172;8.058;2023-07-28T15:02:15;2.08;;;1.40;;
13891;SDS011;7016;48.172;8.058;2023-07-28T15:05:02;3.10;;;1.73;;
13891;SDS011;7016;48.172;8.058;2023-07-28T15:07:48;3.47;;;1.65;;
13891;SDS011;7016;48.172;8.058;2023-07-28T15:10:34;1.98;;;1.58;;
13891;SDS011;7016;48.172;8.058;2023-07-28T15:13:20;3.05;;;1.90;;
13891;SDS011;7016;48.172;8.058;2023-07-28T15:16:06;5.68;;;2.17;;
13891;SDS011;7016;48.172;8.058;2023-07-28T15:18:52;3.53;;;2.13;;
13891;SDS011;7016;48.172;8.058;2023-07-28T15:21:39;5.93;;;2.55;;
13891;SDS011;7016;48.172;8.058;2023-07-28T15:24:25;6.05;;;2.00;;
13891;SDS011;7016;48.172;8.058;2023-07-28T15:27:12;7.30;;;2.40;;
13891;SDS011;7016;48.172;8.058;2023-07-28T15:29:58;4.65;;;2.47;;
13891;SDS011;7016;48.172;8.058;2023-07-28T15:32:45;7.13;;;2.28;;
13891;SDS011;7016;48.172;8.058;2023-07-28T15:35:32;5.68;;;2.38;;
13891;SDS011;7016;48.172;8.058;2023-07-28T15:38:18;4.63;;;2.33;;
13891;SDS011;7016;48.172;8.058;2023-07-28T15:41:05;6.18;;;2.10;;
13891;SDS011;7016;48.172;8.058;2023-07-28T15:43:51;5.63;;;2.60;;
13891;SDS011;7016;48.172;8.058;2023-07-28T15:46:37;6.45;;;2.90;;
13891;SDS011;7016;48.172;8.058;2023-07-28T15:49:23;6.10;;;2.45;;
13891;SDS011;7016;48.172;8.058;2023-07-28T15:52:09;3.47;;;2.03;;
13891;SDS011;7016;48.172;8.058;2023-07-28T15:54:55;4.35;;;2.53;;
13891;SDS011;7016;48.172;8.058;2023-07-28T15:57:42;3.08;;;2.15;;
13891;SDS011;7016;48.172;8.058;2023-07-28T16:00:28;6.53;;;1.88;;
13891;SDS011;7016;48.172;8.058;2023-07-28T16:03:14;5.13;;;2.00;;
13891;SDS011;7016;48.172;8.058;2023-07-28T16:06:00;6.10;;;1.95;;
13891;SDS011;7016;48.172;8.058;2023-07-28T16:08:46;3.80;;;2.13;;
13891;SDS011;7016;48.172;8.058;2023-07-28T16:11:32;2.65;;;1.75;;
13891;SDS011;7016;48.172;8.058;2023-07-28T16:14:19;2.70;;;1.90;;
13891;SDS011;7016;48.172;8.058;2023-07-28T16:17:05;4.07;;;1.92;;
13891;SDS011;7016;48.172;8.058;2023-07-28T16:19:51;5.90;;;2.00;;
13891;SDS011;7016;48.172;8.058;2023-07-28T16:22:37;4.47;;;2.10;;
13891;SDS011;7016;48.172;8.058;2023-07-28T16:25:24;3.97;;;2.03;;
13891;SDS011;7016;48.172;8.058;2023-07-28T16:28:10;3.47;;;2.10;;
13891;SDS011;7016;48.172;8.058;2023-07-28T16:30:56;4.03;;;2.30;;
13891;SDS011;7016;48.172;8.058;2023-07-28T16:33:42;2.90;;;1.90;;
13891;SDS011;7016;48.172;8.058;2023-07-28T16:36:28;3.50;;;1.88;;
13891;SDS011;7016;48.172;8.058;2023-07-28T16:39:15;2.75;;;1.73;;
13891;SDS011;7016;48.172;8.058;2023-07-28T16:42:01;3.45;;;1.83;;
13891;SDS011;7016;48.172;8.058;2023-07-28T16:44:48;6.90;;;1.80;;
13891;SDS011;7016;48.172;8.058;2023-07-28T16:47:34;3.15;;;1.58;;
13891;SDS011;7016;48.172;8.058;2023-07-28T16:50:22;4.07;;;1.70;;
13891;SDS011;7016;48.172;8.058;2023-07-28T16:53:08;2.85;;;1.40;;
13891;SDS011;7016;48.172;8.058;2023-07-28T16:55:54;2.33;;;1.40;;
13891;SDS011;7016;48.172;8.058;2023-07-28T16:58:41;3.13;;;1.50;;
13891;SDS011;7016;48.172;8.058;2023-07-28T17:01:27;2.38;;;1.40;;
13891;SDS011;7016;48.172;8.058;2023-07-28T17:04:13;3.00;;;1.40;;
13891;SDS011;7016;48.172;8.058;2023-07-28T17:06:59;2.60;;;1.50;;